createdAt,value
2018-10-01T00:07:54.638Z,5.3
2018-10-01T00:17:54.468Z,4.1
2018-10-01T00:27:55.020Z,3.7
2018-10-01T00:37:54.537Z,3.5
2018-10-01T00:47:54.581Z,3.8
2018-10-01T00:57:54.123Z,2.6
2018-10-01T01:07:53.718Z,2.7
2018-10-01T01:17:53.494Z,1.7
2018-10-01T01:27:53.259Z,2.2
2018-10-01T01:37:52.889Z,2.2
2018-10-01T01:47:52.946Z,1.7
2018-10-01T01:57:52.564Z,2.1
2018-10-01T02:07:52.116Z,1.7
2018-10-01T02:17:51.743Z,2
2018-10-01T02:27:51.354Z,1.8
2018-10-01T02:37:49.252Z,7.2
2018-10-01T02:47:49.519Z,1.2
2018-10-01T02:57:49.723Z,1.5
2018-10-01T03:07:49.330Z,1.2
2018-10-01T03:17:49.626Z,1.4
2018-10-01T03:27:50.094Z,1.7
2018-10-01T03:37:49.794Z,1.4
2018-10-01T03:47:51.287Z,6.9
2018-10-01T03:57:49.180Z,6.7
2018-10-01T04:07:49.093Z,1.2
2018-10-01T04:17:48.034Z,6.6
2018-10-01T04:27:46.414Z,6.6
2018-10-01T04:37:45.201Z,6.5
2018-10-01T04:47:44.822Z,1.2
2018-10-01T04:57:44.568Z,1.2
2018-10-01T05:07:46.067Z,1.2
2018-10-01T05:17:45.744Z,2.7
2018-10-01T05:27:46.519Z,4.3
2018-10-01T05:37:46.856Z,35.1
2018-10-01T05:47:44.874Z,8.7
2018-10-01T05:57:43.978Z,7.1
2018-10-01T06:07:45.576Z,1.8
2018-10-01T06:17:45.405Z,2.2
2018-10-01T06:27:46.382Z,1.3
2018-10-01T06:37:46.698Z,1.4
2018-10-01T06:47:50.077Z,1.2
2018-10-01T06:57:48.407Z,7
2018-10-01T07:07:47.253Z,6.9
2018-10-01T07:17:49.711Z,1.6
2018-10-01T07:27:50.997Z,1.5
2018-10-01T07:37:50.551Z,1.2
2018-10-01T07:47:53.598Z,1.9
2018-10-01T07:57:54.203Z,1.4
2018-10-01T08:07:55.315Z,1.5
2018-10-01T08:17:56.551Z,1.7
2018-10-01T08:27:57.220Z,1.6
2018-10-01T08:37:58.179Z,1.3
2018-10-01T08:48:00.150Z,2.4
2018-10-01T08:58:01.519Z,1.7
2018-10-01T09:08:03.371Z,5.2
2018-10-01T09:18:06.151Z,7.3
2018-10-01T09:28:05.609Z,13.7
2018-10-01T09:38:05.478Z,13.3
2018-10-01T09:48:08.727Z,7.1
2018-10-01T09:58:07.797Z,13.9
2018-10-01T10:08:10.769Z,7.9
2018-10-01T10:18:13.724Z,6.5
2018-10-01T10:28:17.789Z,6.3
2018-10-01T10:38:17.689Z,6.9
2018-10-01T10:48:18.244Z,6.8
2018-10-01T10:58:19.507Z,12.7
2018-10-01T11:08:18.416Z,12.5
2018-10-01T11:18:20.699Z,7.3
2018-10-01T11:28:26.799Z,8.7
2018-10-01T11:38:27.065Z,15.7
2018-10-01T11:48:27.456Z,9
2018-10-01T11:58:27.922Z,8.5
2018-10-01T12:08:28.824Z,13.5
2018-10-01T12:18:29.198Z,16.3
2018-10-01T12:28:29.973Z,9.3
2018-10-01T12:38:30.597Z,25.6
2018-10-01T12:48:32.572Z,32.4
2018-10-01T12:58:32.894Z,11.8
2018-10-01T13:08:33.841Z,8.5
2018-10-01T13:18:36.126Z,42.8
2018-10-01T13:28:36.543Z,39.2
2018-10-01T13:38:37.119Z,17.5
2018-10-01T13:48:37.652Z,18
2018-10-01T13:58:40.181Z,12.4
2018-10-01T14:08:41.671Z,11.9
2018-10-01T14:18:42.776Z,16.4
2018-10-01T14:28:46.055Z,12.7
2018-10-01T14:38:46.960Z,12.8
2018-10-01T14:48:47.525Z,22.4
2018-10-01T14:58:47.972Z,14.8
2018-10-01T15:08:49.124Z,14.5
2018-10-01T15:18:50.165Z,16.6
2018-10-01T15:28:48.614Z,18.8
2018-10-01T15:38:47.909Z,19.2
2018-10-01T15:48:47.949Z,13
2018-10-01T15:58:47.541Z,12.7
2018-10-01T16:08:47.576Z,18.3
2018-10-01T16:18:49.176Z,19.4
2018-10-01T16:28:47.056Z,26.1
2018-10-01T16:38:46.918Z,16.7
2018-10-01T16:48:45.299Z,23.3
2018-10-01T16:58:44.286Z,24.8
2018-10-01T17:08:43.866Z,10.5
2018-10-01T17:18:45.316Z,17.9
2018-10-01T17:28:46.218Z,10.6
2018-10-01T17:38:47.513Z,10.5
2018-10-01T17:48:48.296Z,10.9
2018-10-01T17:58:47.264Z,17
2018-10-01T18:08:49.239Z,11
2018-10-01T18:18:50.624Z,11.2
2018-10-01T18:28:51.321Z,12.6
2018-10-01T18:38:50.200Z,15.8
2018-10-01T18:48:51.193Z,9.1
2018-10-01T18:58:52.249Z,9.4
2018-10-01T19:08:51.615Z,16.1
2018-10-01T19:18:54.694Z,10.7
2018-10-01T19:28:54.410Z,17.3
2018-10-01T19:38:57.009Z,10.1
2018-10-01T19:48:58.797Z,8.4
2018-10-01T19:58:58.594Z,8.9
2018-10-01T20:08:59.852Z,9.4
2018-10-01T20:18:59.761Z,7.8
2018-10-01T20:29:03.597Z,14.5
2018-10-01T20:39:04.798Z,13.2
2018-10-01T20:49:04.644Z,6.4
2018-10-01T20:59:03.606Z,12.2
2018-10-01T21:09:08.088Z,6.3
2018-10-01T21:19:07.665Z,6.8
2018-10-01T21:29:07.247Z,6.4
2018-10-01T21:39:07.091Z,6.4
2018-10-01T21:49:06.925Z,6.7
2018-10-01T21:59:07.057Z,6.6
2018-10-01T22:09:07.047Z,5.9
2018-10-01T22:19:05.170Z,11
2018-10-01T22:29:03.088Z,10.9
2018-10-01T22:39:01.745Z,10.6
2018-10-01T22:49:02.545Z,6.1
2018-10-01T22:59:02.541Z,4.9
2018-10-01T23:09:02.526Z,5.9
2018-10-01T23:19:01.977Z,5.5
2018-10-01T23:29:02.766Z,5.7
2018-10-01T23:39:03.525Z,6
2018-10-01T23:49:04.139Z,5.7
2018-10-01T23:59:04.131Z,5.6
